CCA1898 ZSLG-ZBAA
Flight info
| Callsign | CCA1898 |
|---|---|
| Flight time | 1h 9m |
| Altitude | 37100 |
| Route | RUX91D RUXEL W529 SAGIP A593 DALIM W157 AVBOX AVBOX8Y |
| Aircraft | A320/M-SDE3FGHIRWY/LB1 |
Departure
| Time | 2026-05-06 13:14 |
|---|---|
| Airport | Lianyungang Huaguoshan International Airport (ZSLG) |
Arrival
| Time | 2026-05-06 14:23 |
|---|---|
| Airport | Beijing Capital International Airport (ZBAA) |
| Time | Latitude | Longitude | Altitude | Speed | Heading |
|---|---|---|---|---|---|
| 2026-05-06 12:55 | 34.41007 | 119.18265 | 17 ft | 0 kts | 115° |
| 2026-05-06 13:01 | 34.41011 | 119.18254 | 20 ft | 2 kts | 114° |
| 2026-05-06 13:02 | 34.41017 | 119.18236 | 22 ft | 2 kts | 111° |
| 2026-05-06 13:02 | 34.41023 | 119.18216 | 24 ft | 2 kts | 86° |
| 2026-05-06 13:02 | 34.41016 | 119.18202 | 25 ft | 1 kts | 28° |
| 2026-05-06 13:02 | 34.41015 | 119.18201 | 25 ft | 0 kts | 27° |
| 2026-05-06 13:08 | 34.41039 | 119.18213 | 23 ft | 9 kts | 20° |
| 2026-05-06 13:09 | 34.41123 | 119.18256 | 20 ft | 17 kts | 25° |
| 2026-05-06 13:09 | 34.41223 | 119.18312 | 21 ft | 14 kts | 25° |
| 2026-05-06 13:09 | 34.41285 | 119.18288 | 24 ft | 8 kts | 302° |
| 2026-05-06 13:09 | 34.41300 | 119.18256 | 25 ft | 4 kts | 298° |
| 2026-05-06 13:10 | 34.41333 | 119.18176 | 26 ft | 18 kts | 296° |
| 2026-05-06 13:10 | 34.41320 | 119.18077 | 26 ft | 12 kts | 223° |
| 2026-05-06 13:10 | 34.41270 | 119.18041 | 27 ft | 4 kts | 208° |
| 2026-05-06 13:10 | 34.41246 | 119.18025 | 27 ft | 4 kts | 208° |
| 2026-05-06 13:11 | 34.41216 | 119.18006 | 28 ft | 8 kts | 208° |
| 2026-05-06 13:11 | 34.41145 | 119.17960 | 30 ft | 15 kts | 205° |
| 2026-05-06 13:11 | 34.41023 | 119.17889 | 30 ft | 23 kts | 207° |
| 2026-05-06 13:11 | 34.40863 | 119.17795 | 31 ft | 28 kts | 207° |
| 2026-05-06 13:12 | 34.40695 | 119.17688 | 27 ft | 27 kts | 209° |
| 2026-05-06 13:12 | 34.40528 | 119.17590 | 24 ft | 27 kts | 204° |
| 2026-05-06 13:12 | 34.40357 | 119.17493 | 27 ft | 26 kts | 206° |
| 2026-05-06 13:12 | 34.40206 | 119.17400 | 26 ft | 22 kts | 208° |
| 2026-05-06 13:13 | 34.40130 | 119.17307 | 28 ft | 8 kts | 280° |
| 2026-05-06 13:13 | 34.40178 | 119.17223 | 29 ft | 17 kts | 302° |
| 2026-05-06 13:13 | 34.40240 | 119.17218 | 28 ft | 8 kts | 34° |
| 2026-05-06 13:13 | 34.40372 | 119.17294 | 26 ft | 50 kts | 25° |
| 2026-05-06 13:14 | 34.40904 | 119.17614 | 31 ft | 117 kts | 26° |
| 2026-05-06 13:14 | 34.41798 | 119.18161 | 71 ft | 163 kts | 26° |
| 2026-05-06 13:14 | 34.42825 | 119.18742 | 656 ft | 164 kts | 26° |
| 2026-05-06 13:14 | 34.43858 | 119.19338 | 1263 ft | 166 kts | 27° |
| 2026-05-06 13:15 | 34.44890 | 119.19941 | 1745 ft | 171 kts | 26° |
| 2026-05-06 13:15 | 34.46032 | 119.20611 | 2024 ft | 194 kts | 26° |
| 2026-05-06 13:15 | 34.47335 | 119.21378 | 2288 ft | 222 kts | 25° |
| 2026-05-06 13:15 | 34.48802 | 119.22242 | 2610 ft | 246 kts | 25° |
| 2026-05-06 13:16 | 34.50364 | 119.23267 | 3141 ft | 261 kts | 39° |
| 2026-05-06 13:16 | 34.51449 | 119.25005 | 3929 ft | 262 kts | 72° |
| 2026-05-06 13:16 | 34.51643 | 119.27141 | 4754 ft | 260 kts | 104° |
| 2026-05-06 13:16 | 34.50920 | 119.29101 | 5562 ft | 256 kts | 134° |
| 2026-05-06 13:17 | 34.49479 | 119.30349 | 6326 ft | 253 kts | 165° |
| 2026-05-06 13:17 | 34.47775 | 119.30554 | 7039 ft | 252 kts | 193° |
| 2026-05-06 13:17 | 34.46165 | 119.29751 | 7792 ft | 252 kts | 213° |
| 2026-05-06 13:17 | 34.44546 | 119.28882 | 8550 ft | 261 kts | 195° |
| 2026-05-06 13:18 | 34.42746 | 119.28447 | 9316 ft | 266 kts | 194° |
| 2026-05-06 13:18 | 34.40919 | 119.28011 | 10053 ft | 270 kts | 194° |
| 2026-05-06 13:18 | 34.39065 | 119.27566 | 10792 ft | 273 kts | 194° |
| 2026-05-06 13:18 | 34.37196 | 119.27117 | 11547 ft | 275 kts | 194° |
| 2026-05-06 13:19 | 34.35340 | 119.26553 | 12295 ft | 275 kts | 202° |
| 2026-05-06 13:19 | 34.33672 | 119.25710 | 13008 ft | 275 kts | 208° |
| 2026-05-06 13:19 | 34.31957 | 119.24660 | 13756 ft | 277 kts | 210° |
| 2026-05-06 13:19 | 34.30215 | 119.23526 | 14064 ft | 295 kts | 211° |
| 2026-05-06 13:20 | 34.28336 | 119.22300 | 14191 ft | 318 kts | 210° |
| 2026-05-06 13:20 | 34.26311 | 119.21006 | 14315 ft | 340 kts | 210° |
| 2026-05-06 13:20 | 34.24145 | 119.19653 | 14435 ft | 360 kts | 209° |
| 2026-05-06 13:20 | 34.21851 | 119.18250 | 14552 ft | 379 kts | 208° |
| 2026-05-06 13:21 | 34.19438 | 119.16795 | 14668 ft | 396 kts | 208° |
| 2026-05-06 13:21 | 34.16927 | 119.15295 | 14940 ft | 406 kts | 209° |
| 2026-05-06 13:21 | 34.14605 | 119.13360 | 15396 ft | 407 kts | 225° |
| 2026-05-06 13:21 | 34.12877 | 119.10663 | 15904 ft | 408 kts | 242° |
| 2026-05-06 13:22 | 34.11929 | 119.07493 | 16402 ft | 410 kts | 258° |
| 2026-05-06 13:22 | 34.11706 | 119.04053 | 16908 ft | 413 kts | 266° |
| 2026-05-06 13:22 | 34.11611 | 119.00583 | 17390 ft | 414 kts | 266° |
| 2026-05-06 13:22 | 34.11521 | 118.97102 | 17859 ft | 416 kts | 266° |
| 2026-05-06 13:23 | 34.11433 | 118.93603 | 18288 ft | 418 kts | 266° |
| 2026-05-06 13:23 | 34.11340 | 118.90093 | 18665 ft | 419 kts | 266° |
| 2026-05-06 13:23 | 34.11240 | 118.86573 | 19040 ft | 420 kts | 266° |
| 2026-05-06 13:23 | 34.11133 | 118.83044 | 19411 ft | 421 kts | 266° |
| 2026-05-06 13:24 | 34.11024 | 118.79511 | 19773 ft | 423 kts | 266° |
| 2026-05-06 13:24 | 34.10910 | 118.75962 | 20124 ft | 424 kts | 266° |
| 2026-05-06 13:24 | 34.10796 | 118.72406 | 20465 ft | 425 kts | 266° |
| 2026-05-06 13:24 | 34.10681 | 118.68841 | 20789 ft | 426 kts | 266° |
| 2026-05-06 13:25 | 34.10565 | 118.65267 | 21097 ft | 427 kts | 265° |
| 2026-05-06 13:25 | 34.10446 | 118.61683 | 21410 ft | 428 kts | 265° |
| 2026-05-06 13:25 | 34.10325 | 118.58088 | 21716 ft | 429 kts | 265° |
| 2026-05-06 13:25 | 34.10203 | 118.54487 | 22018 ft | 430 kts | 265° |
| 2026-05-06 13:26 | 34.10083 | 118.50875 | 22309 ft | 431 kts | 265° |
| 2026-05-06 13:26 | 34.09965 | 118.47291 | 22599 ft | 432 kts | 265° |
| 2026-05-06 13:26 | 34.09845 | 118.43658 | 22874 ft | 433 kts | 265° |
| 2026-05-06 13:26 | 34.09724 | 118.40022 | 23136 ft | 434 kts | 265° |
| 2026-05-06 13:27 | 34.09602 | 118.36378 | 23387 ft | 435 kts | 265° |
| 2026-05-06 13:27 | 34.09482 | 118.32893 | 23588 ft | 436 kts | 265° |
| 2026-05-06 13:27 | 34.09346 | 118.29059 | 23792 ft | 438 kts | 265° |
| 2026-05-06 13:27 | 34.09221 | 118.25387 | 23972 ft | 439 kts | 267° |
| 2026-05-06 13:28 | 34.09468 | 118.21761 | 24209 ft | 442 kts | 278° |
| 2026-05-06 13:28 | 34.10358 | 118.18202 | 24478 ft | 447 kts | 289° |
| 2026-05-06 13:28 | 34.11877 | 118.14909 | 24746 ft | 453 kts | 301° |
| 2026-05-06 13:28 | 34.13980 | 118.12053 | 25018 ft | 460 kts | 313° |
| 2026-05-06 13:29 | 34.16533 | 118.09686 | 25297 ft | 464 kts | 319° |
| 2026-05-06 13:29 | 34.19148 | 118.07410 | 25451 ft | 463 kts | 319° |
| 2026-05-06 13:29 | 34.21757 | 118.05141 | 25487 ft | 462 kts | 319° |
| 2026-05-06 13:29 | 34.24365 | 118.02871 | 25481 ft | 462 kts | 319° |
| 2026-05-06 13:30 | 34.27054 | 118.00724 | 25481 ft | 466 kts | 325° |
| 2026-05-06 13:30 | 34.30023 | 117.99085 | 25480 ft | 473 kts | 335° |
| 2026-05-06 13:30 | 34.33187 | 117.97918 | 25480 ft | 476 kts | 338° |
| 2026-05-06 13:30 | 34.36369 | 117.96795 | 25475 ft | 476 kts | 338° |
| 2026-05-06 13:31 | 34.39547 | 117.95668 | 25477 ft | 476 kts | 338° |
| 2026-05-06 13:31 | 34.42701 | 117.94545 | 25474 ft | 475 kts | 338° |
| 2026-05-06 13:31 | 34.45876 | 117.93408 | 25475 ft | 475 kts | 338° |
| 2026-05-06 13:31 | 34.49042 | 117.92269 | 25476 ft | 474 kts | 338° |
| 2026-05-06 13:32 | 34.52201 | 117.91132 | 25470 ft | 474 kts | 338° |
| 2026-05-06 13:32 | 34.55362 | 117.89996 | 25474 ft | 473 kts | 338° |
| 2026-05-06 13:32 | 34.58520 | 117.88868 | 25467 ft | 473 kts | 338° |
| 2026-05-06 13:32 | 34.61679 | 117.87740 | 25470 ft | 473 kts | 338° |
| 2026-05-06 13:33 | 34.64837 | 117.86605 | 25648 ft | 474 kts | 338° |
| 2026-05-06 13:33 | 34.67992 | 117.85468 | 25979 ft | 472 kts | 338° |
| 2026-05-06 13:33 | 34.71133 | 117.84337 | 26306 ft | 470 kts | 338° |
| 2026-05-06 13:33 | 34.74263 | 117.83210 | 26641 ft | 468 kts | 338° |
| 2026-05-06 13:34 | 34.77383 | 117.82089 | 26968 ft | 467 kts | 338° |
| 2026-05-06 13:34 | 34.80491 | 117.80972 | 27308 ft | 465 kts | 338° |
| 2026-05-06 13:34 | 34.83590 | 117.79857 | 27651 ft | 464 kts | 338° |
| 2026-05-06 13:34 | 34.86676 | 117.78730 | 28001 ft | 462 kts | 338° |
| 2026-05-06 13:35 | 34.89750 | 117.77600 | 28349 ft | 461 kts | 338° |
| 2026-05-06 13:35 | 34.92666 | 117.76528 | 28665 ft | 460 kts | 338° |
| 2026-05-06 13:35 | 34.95725 | 117.75406 | 29031 ft | 458 kts | 338° |
| 2026-05-06 13:35 | 34.98772 | 117.74291 | 29370 ft | 457 kts | 338° |
| 2026-05-06 13:36 | 35.01815 | 117.73178 | 29709 ft | 456 kts | 338° |
| 2026-05-06 13:36 | 35.04855 | 117.72064 | 29926 ft | 456 kts | 337° |
| 2026-05-06 13:36 | 35.07911 | 117.70938 | 29968 ft | 461 kts | 337° |
| 2026-05-06 13:37 | 35.14075 | 117.68671 | 29959 ft | 464 kts | 337° |
| 2026-05-06 13:37 | 35.20257 | 117.66415 | 29960 ft | 464 kts | 337° |
| 2026-05-06 13:38 | 35.26441 | 117.64145 | 29959 ft | 464 kts | 337° |
| 2026-05-06 13:38 | 35.32577 | 117.61876 | 29961 ft | 464 kts | 337° |
| 2026-05-06 13:39 | 35.38750 | 117.59593 | 29960 ft | 464 kts | 337° |
| 2026-05-06 13:39 | 35.44927 | 117.57314 | 29961 ft | 463 kts | 337° |
| 2026-05-06 13:40 | 35.51101 | 117.55036 | 29955 ft | 463 kts | 336° |
| 2026-05-06 13:40 | 35.57263 | 117.52744 | 29961 ft | 462 kts | 336° |
| 2026-05-06 13:41 | 35.63416 | 117.50453 | 29956 ft | 462 kts | 336° |
| 2026-05-06 13:41 | 35.68531 | 117.48550 | 29963 ft | 462 kts | 336° |
| 2026-05-06 13:42 | 35.74677 | 117.46263 | 29966 ft | 461 kts | 336° |
| 2026-05-06 13:42 | 35.80790 | 117.43977 | 29966 ft | 461 kts | 336° |
| 2026-05-06 13:43 | 35.86926 | 117.41688 | 29968 ft | 460 kts | 336° |
| 2026-05-06 13:43 | 35.93055 | 117.39404 | 29969 ft | 460 kts | 336° |
| 2026-05-06 13:44 | 35.99176 | 117.37112 | 29978 ft | 459 kts | 336° |
| 2026-05-06 13:44 | 36.05294 | 117.34827 | 29981 ft | 459 kts | 336° |
| 2026-05-06 13:45 | 36.11415 | 117.32565 | 29979 ft | 459 kts | 336° |
| 2026-05-06 13:45 | 36.19135 | 117.29577 | 29989 ft | 453 kts | 330° |
| 2026-05-06 13:46 | 36.25141 | 117.27049 | 29977 ft | 460 kts | 337° |
| 2026-05-06 13:46 | 36.31353 | 117.25045 | 29969 ft | 462 kts | 338° |
| 2026-05-06 13:47 | 36.37557 | 117.22953 | 29961 ft | 462 kts | 337° |
| 2026-05-06 13:47 | 36.43622 | 117.20414 | 29949 ft | 457 kts | 329° |
| 2026-05-06 13:48 | 36.49428 | 117.17310 | 29952 ft | 458 kts | 330° |
| 2026-05-06 13:48 | 36.55318 | 117.14244 | 29960 ft | 460 kts | 330° |
| 2026-05-06 13:49 | 36.61111 | 117.11249 | 29968 ft | 460 kts | 330° |
| 2026-05-06 13:49 | 36.67027 | 117.08178 | 29974 ft | 461 kts | 330° |
| 2026-05-06 13:50 | 36.72941 | 117.05087 | 29983 ft | 461 kts | 330° |
| 2026-05-06 13:50 | 36.78858 | 117.01983 | 29985 ft | 461 kts | 330° |
| 2026-05-06 13:51 | 36.84774 | 116.98874 | 29989 ft | 462 kts | 330° |
| 2026-05-06 13:51 | 36.90705 | 116.95768 | 29983 ft | 462 kts | 330° |
| 2026-05-06 13:52 | 36.96633 | 116.92651 | 29979 ft | 463 kts | 330° |
| 2026-05-06 13:52 | 37.02568 | 116.89522 | 29976 ft | 463 kts | 329° |
| 2026-05-06 13:53 | 37.08509 | 116.86381 | 29972 ft | 464 kts | 329° |
| 2026-05-06 13:53 | 37.14416 | 116.83254 | 29976 ft | 464 kts | 329° |
| 2026-05-06 13:54 | 37.20357 | 116.80101 | 30319 ft | 467 kts | 335° |
| 2026-05-06 13:54 | 37.23470 | 116.78711 | 30115 ft | 483 kts | 341° |
| 2026-05-06 13:54 | 37.26719 | 116.77491 | 30099 ft | 492 kts | 344° |
| 2026-05-06 13:55 | 37.33396 | 116.74986 | 30107 ft | 512 kts | 344° |
| 2026-05-06 13:55 | 37.40320 | 116.72358 | 30108 ft | 527 kts | 344° |
| 2026-05-06 13:56 | 37.47416 | 116.69646 | 30106 ft | 536 kts | 343° |
| 2026-05-06 13:56 | 37.54578 | 116.66901 | 30115 ft | 542 kts | 342° |
| 2026-05-06 13:57 | 37.61811 | 116.64127 | 30104 ft | 544 kts | 343° |
| 2026-05-06 13:57 | 37.69065 | 116.61362 | 30108 ft | 544 kts | 343° |
| 2026-05-06 13:58 | 37.76321 | 116.58600 | 30110 ft | 544 kts | 343° |
| 2026-05-06 13:58 | 37.83580 | 116.55854 | 30106 ft | 544 kts | 343° |
| 2026-05-06 13:59 | 37.90832 | 116.53101 | 30102 ft | 544 kts | 343° |
| 2026-05-06 13:59 | 37.97891 | 116.49702 | 30104 ft | 542 kts | 330° |
| 2026-05-06 14:00 | 38.04128 | 116.44429 | 30096 ft | 538 kts | 321° |
| 2026-05-06 14:00 | 38.10158 | 116.38896 | 30100 ft | 539 kts | 321° |
| 2026-05-06 14:01 | 38.16235 | 116.33330 | 30100 ft | 539 kts | 321° |
| 2026-05-06 14:01 | 38.22872 | 116.28870 | 29983 ft | 544 kts | 340° |
| 2026-05-06 14:02 | 38.26432 | 116.27624 | 30255 ft | 512 kts | 339° |
| 2026-05-06 14:02 | 38.29899 | 116.27015 | 30748 ft | 501 kts | 347° |
| 2026-05-06 14:02 | 38.33380 | 116.27162 | 30800 ft | 503 kts | 360° |
| 2026-05-06 14:02 | 38.36846 | 116.28094 | 30417 ft | 513 kts | 8° |
| 2026-05-06 14:03 | 38.40256 | 116.29395 | 29261 ft | 510 kts | 9° |
| 2026-05-06 14:03 | 38.43666 | 116.30639 | 27145 ft | 511 kts | 8° |
| 2026-05-06 14:03 | 38.47105 | 116.31824 | 25016 ft | 512 kts | 8° |
| 2026-05-06 14:03 | 38.50557 | 116.32975 | 23073 ft | 511 kts | 8° |
| 2026-05-06 14:04 | 38.53951 | 116.34105 | 21627 ft | 496 kts | 9° |
| 2026-05-06 14:04 | 38.57238 | 116.35217 | 20280 ft | 482 kts | 9° |
| 2026-05-06 14:04 | 38.60428 | 116.36312 | 18989 ft | 469 kts | 9° |
| 2026-05-06 14:04 | 38.63546 | 116.37391 | 17813 ft | 462 kts | 10° |
| 2026-05-06 14:05 | 38.66627 | 116.38430 | 17141 ft | 453 kts | 9° |
| 2026-05-06 14:05 | 38.69661 | 116.39350 | 16818 ft | 445 kts | 7° |
| 2026-05-06 14:05 | 38.72671 | 116.40186 | 16566 ft | 441 kts | 7° |
| 2026-05-06 14:05 | 38.75665 | 116.40981 | 16318 ft | 438 kts | 6° |
| 2026-05-06 14:06 | 38.78649 | 116.41770 | 16071 ft | 437 kts | 7° |
| 2026-05-06 14:06 | 38.81617 | 116.42572 | 15825 ft | 435 kts | 7° |
| 2026-05-06 14:06 | 38.84571 | 116.43390 | 15580 ft | 434 kts | 7° |
| 2026-05-06 14:06 | 38.87513 | 116.44218 | 15336 ft | 432 kts | 8° |
| 2026-05-06 14:07 | 38.90399 | 116.45043 | 15099 ft | 430 kts | 8° |
| 2026-05-06 14:07 | 38.93316 | 116.45883 | 14861 ft | 428 kts | 8° |
| 2026-05-06 14:07 | 38.96217 | 116.46717 | 14622 ft | 426 kts | 8° |
| 2026-05-06 14:07 | 38.99108 | 116.47536 | 14387 ft | 424 kts | 7° |
| 2026-05-06 14:08 | 39.01990 | 116.48284 | 14158 ft | 422 kts | 6° |
| 2026-05-06 14:08 | 39.04867 | 116.48967 | 13928 ft | 419 kts | 6° |
| 2026-05-06 14:08 | 39.07733 | 116.49614 | 13682 ft | 417 kts | 6° |
| 2026-05-06 14:08 | 39.10583 | 116.50247 | 13417 ft | 414 kts | 6° |
| 2026-05-06 14:09 | 39.13411 | 116.50885 | 13155 ft | 411 kts | 6° |
| 2026-05-06 14:09 | 39.16221 | 116.51534 | 12897 ft | 409 kts | 7° |
| 2026-05-06 14:09 | 39.19008 | 116.52194 | 12640 ft | 406 kts | 7° |
| 2026-05-06 14:09 | 39.21781 | 116.52857 | 12386 ft | 404 kts | 7° |
| 2026-05-06 14:10 | 39.24537 | 116.53516 | 12131 ft | 402 kts | 7° |
| 2026-05-06 14:10 | 39.27281 | 116.54170 | 11878 ft | 400 kts | 7° |
| 2026-05-06 14:10 | 39.30011 | 116.54820 | 11632 ft | 398 kts | 7° |
| 2026-05-06 14:10 | 39.32727 | 116.55468 | 11385 ft | 396 kts | 8° |
| 2026-05-06 14:11 | 39.35391 | 116.56106 | 11132 ft | 381 kts | 8° |
| 2026-05-06 14:11 | 39.37947 | 116.56722 | 10885 ft | 366 kts | 8° |
| 2026-05-06 14:11 | 39.40408 | 116.57313 | 10644 ft | 352 kts | 8° |
| 2026-05-06 14:11 | 39.42774 | 116.57875 | 10404 ft | 340 kts | 8° |
| 2026-05-06 14:12 | 39.45064 | 116.58415 | 10165 ft | 329 kts | 8° |
| 2026-05-06 14:12 | 39.47278 | 116.58934 | 9941 ft | 318 kts | 8° |
| 2026-05-06 14:12 | 39.49385 | 116.59430 | 9814 ft | 306 kts | 8° |
| 2026-05-06 14:12 | 39.51440 | 116.59920 | 9678 ft | 294 kts | 8° |
| 2026-05-06 14:13 | 39.53443 | 116.60402 | 9545 ft | 285 kts | 8° |
| 2026-05-06 14:13 | 39.55347 | 116.60861 | 9416 ft | 281 kts | 7° |
| 2026-05-06 14:13 | 39.57263 | 116.61319 | 9286 ft | 279 kts | 7° |
| 2026-05-06 14:13 | 39.59167 | 116.61776 | 9151 ft | 278 kts | 8° |
| 2026-05-06 14:14 | 39.61078 | 116.62233 | 8711 ft | 282 kts | 7° |
| 2026-05-06 14:14 | 39.62907 | 116.62665 | 8441 ft | 275 kts | 7° |
| 2026-05-06 14:14 | 39.64772 | 116.63107 | 7793 ft | 271 kts | 8° |
| 2026-05-06 14:14 | 39.66604 | 116.63519 | 7278 ft | 263 kts | 3° |
| 2026-05-06 14:15 | 39.68404 | 116.63501 | 6781 ft | 256 kts | 352° |
| 2026-05-06 14:15 | 39.70162 | 116.63230 | 6297 ft | 253 kts | 352° |
| 2026-05-06 14:15 | 39.71896 | 116.62981 | 5786 ft | 249 kts | 352° |
| 2026-05-06 14:15 | 39.73610 | 116.62718 | 5277 ft | 246 kts | 352° |
| 2026-05-06 14:16 | 39.75318 | 116.62451 | 4782 ft | 248 kts | 352° |
| 2026-05-06 14:16 | 39.77041 | 116.62181 | 4273 ft | 251 kts | 352° |
| 2026-05-06 14:16 | 39.78782 | 116.61908 | 3763 ft | 253 kts | 352° |
| 2026-05-06 14:16 | 39.80531 | 116.61634 | 3270 ft | 254 kts | 352° |
| 2026-05-06 14:17 | 39.82282 | 116.61360 | 2992 ft | 249 kts | 352° |
| 2026-05-06 14:17 | 39.83939 | 116.61102 | 2978 ft | 231 kts | 352° |
| 2026-05-06 14:17 | 39.85476 | 116.60861 | 2989 ft | 215 kts | 352° |
| 2026-05-06 14:17 | 39.86913 | 116.60636 | 2992 ft | 201 kts | 352° |
| 2026-05-06 14:18 | 39.88262 | 116.60424 | 2995 ft | 191 kts | 351° |
| 2026-05-06 14:18 | 39.89555 | 116.60221 | 2990 ft | 181 kts | 351° |
| 2026-05-06 14:18 | 39.90788 | 116.60027 | 2997 ft | 177 kts | 352° |
| 2026-05-06 14:18 | 39.92003 | 116.59836 | 2988 ft | 175 kts | 352° |
| 2026-05-06 14:19 | 39.93211 | 116.59646 | 2852 ft | 174 kts | 351° |
| 2026-05-06 14:19 | 39.94403 | 116.59458 | 2657 ft | 174 kts | 352° |
| 2026-05-06 14:19 | 39.95606 | 116.59269 | 2433 ft | 175 kts | 351° |
| 2026-05-06 14:19 | 39.96820 | 116.59078 | 2206 ft | 177 kts | 351° |
| 2026-05-06 14:20 | 39.98035 | 116.58887 | 1996 ft | 174 kts | 351° |
| 2026-05-06 14:20 | 39.99151 | 116.58712 | 1754 ft | 160 kts | 351° |
| 2026-05-06 14:20 | 40.00189 | 116.58550 | 1547 ft | 142 kts | 351° |
| 2026-05-06 14:20 | 40.01125 | 116.58402 | 1363 ft | 131 kts | 351° |
| 2026-05-06 14:21 | 40.02016 | 116.58261 | 1190 ft | 128 kts | 351° |
| 2026-05-06 14:21 | 40.02902 | 116.58121 | 1028 ft | 128 kts | 351° |
| 2026-05-06 14:21 | 40.03797 | 116.57979 | 860 ft | 131 kts | 351° |
| 2026-05-06 14:21 | 40.04705 | 116.57836 | 684 ft | 133 kts | 353° |
| 2026-05-06 14:22 | 40.05628 | 116.57691 | 496 ft | 135 kts | 353° |
| 2026-05-06 14:22 | 40.06549 | 116.57553 | 287 ft | 136 kts | 354° |
| 2026-05-06 14:22 | 40.07489 | 116.57397 | 141 ft | 135 kts | 354° |
| 2026-05-06 14:22 | 40.08305 | 116.57271 | 121 ft | 97 kts | 353° |
| 2026-05-06 14:23 | 40.08739 | 116.57244 | 122 ft | 20 kts | 22° |
| 2026-05-06 14:23 | 40.08858 | 116.57308 | 123 ft | 19 kts | 22° |
| 2026-05-06 14:23 | 40.08859 | 116.57395 | 123 ft | 11 kts | 156° |
| 2026-05-06 14:23 | 40.08791 | 116.57420 | 122 ft | 9 kts | 172° |
| 2026-05-06 14:24 | 40.08721 | 116.57432 | 124 ft | 12 kts | 173° |
| 2026-05-06 14:24 | 40.08621 | 116.57448 | 123 ft | 17 kts | 174° |
| 2026-05-06 14:24 | 40.08490 | 116.57467 | 123 ft | 21 kts | 173° |
| 2026-05-06 14:24 | 40.08340 | 116.57491 | 121 ft | 23 kts | 173° |
| 2026-05-06 14:25 | 40.08178 | 116.57517 | 122 ft | 22 kts | 171° |
| 2026-05-06 14:25 | 40.08161 | 116.57647 | 124 ft | 16 kts | 83° |
| 2026-05-06 14:25 | 40.08176 | 116.57803 | 125 ft | 19 kts | 83° |
| 2026-05-06 14:25 | 40.08234 | 116.57958 | 124 ft | 20 kts | 74° |
| 2026-05-06 14:26 | 40.08252 | 116.58136 | 123 ft | 17 kts | 83° |
| 2026-05-06 14:26 | 40.08259 | 116.58270 | 124 ft | 8 kts | 126° |
| 2026-05-06 14:26 | 40.08229 | 116.58264 | 123 ft | 2 kts | 188° |
| 2026-05-06 14:26 | 40.08217 | 116.58268 | 120 ft | 1 kts | 161° |
| 2026-05-06 14:27 | 40.08207 | 116.58271 | 124 ft | 3 kts | 170° |
| 2026-05-06 14:27 | 40.08189 | 116.58274 | 122 ft | 0 kts | 172° |
| 2026-05-06 14:27 | 40.08185 | 116.58275 | 123 ft | 3 kts | 173° |
| 2026-05-06 14:28 | 40.08180 | 116.58276 | 124 ft | 0 kts | 173° |